sensor_id;sensor_type;location;lat;lon;timestamp;P1;durP1;ratioP1;P2;durP2;ratioP2
38023;SDS011;23834;48.080;11.682;2023-07-02T00:02:14;2.33;;;2.13;;
38023;SDS011;23834;48.080;11.682;2023-07-02T00:04:40;2.33;;;1.90;;
38023;SDS011;23834;48.080;11.682;2023-07-02T00:07:05;1.70;;;1.60;;
38023;SDS011;23834;48.080;11.682;2023-07-02T00:09:30;2.13;;;1.93;;
38023;SDS011;23834;48.080;11.682;2023-07-02T00:11:55;2.17;;;1.97;;
38023;SDS011;23834;48.080;11.682;2023-07-02T00:14:20;2.30;;;2.10;;
38023;SDS011;23834;48.080;11.682;2023-07-02T00:16:46;1.80;;;1.70;;
38023;SDS011;23834;48.080;11.682;2023-07-02T00:19:13;2.03;;;1.80;;
38023;SDS011;23834;48.080;11.682;2023-07-02T00:21:38;2.13;;;1.93;;
38023;SDS011;23834;48.080;11.682;2023-07-02T00:24:05;1.87;;;1.73;;
38023;SDS011;23834;48.080;11.682;2023-07-02T00:26:30;2.10;;;2.00;;
38023;SDS011;23834;48.080;11.682;2023-07-02T00:28:56;2.00;;;1.90;;
38023;SDS011;23834;48.080;11.682;2023-07-02T00:31:21;1.90;;;1.80;;
38023;SDS011;23834;48.080;11.682;2023-07-02T00:33:47;1.80;;;1.70;;
38023;SDS011;23834;48.080;11.682;2023-07-02T00:36:13;2.30;;;2.10;;
38023;SDS011;23834;48.080;11.682;2023-07-02T00:38:41;2.23;;;2.00;;
38023;SDS011;23834;48.080;11.682;2023-07-02T00:41:07;1.70;;;1.60;;
38023;SDS011;23834;48.080;11.682;2023-07-02T00:43:32;1.47;;;1.37;;
38023;SDS011;23834;48.080;11.682;2023-07-02T00:45:57;2.20;;;1.57;;
38023;SDS011;23834;48.080;11.682;2023-07-02T00:48:23;1.97;;;1.87;;
38023;SDS011;23834;48.080;11.682;2023-07-02T00:50:48;1.60;;;1.50;;
38023;SDS011;23834;48.080;11.682;2023-07-02T00:53:13;2.00;;;1.90;;
38023;SDS011;23834;48.080;11.682;2023-07-02T00:55:38;2.33;;;2.10;;
38023;SDS011;23834;48.080;11.682;2023-07-02T00:58:03;1.87;;;1.77;;
38023;SDS011;23834;48.080;11.682;2023-07-02T01:00:29;2.40;;;1.77;;
38023;SDS011;23834;48.080;11.682;2023-07-02T01:02:54;1.73;;;1.63;;
38023;SDS011;23834;48.080;11.682;2023-07-02T01:05:23;2.10;;;1.63;;
38023;SDS011;23834;48.080;11.682;2023-07-02T01:07:49;1.60;;;1.50;;
38023;SDS011;23834;48.080;11.682;2023-07-02T01:10:14;1.83;;;1.73;;
38023;SDS011;23834;48.080;11.682;2023-07-02T01:12:39;1.70;;;1.60;;
38023;SDS011;23834;48.080;11.682;2023-07-02T01:15:05;1.70;;;1.60;;
38023;SDS011;23834;48.080;11.682;2023-07-02T01:17:31;2.90;;;1.80;;
38023;SDS011;23834;48.080;11.682;2023-07-02T01:20:05;2.27;;;2.07;;
38023;SDS011;23834;48.080;11.682;2023-07-02T01:22:33;1.57;;;1.47;;
38023;SDS011;23834;48.080;11.682;2023-07-02T01:24:58;1.80;;;1.70;;
38023;SDS011;23834;48.080;11.682;2023-07-02T01:27:24;1.70;;;1.60;;
38023;SDS011;23834;48.080;11.682;2023-07-02T01:29:52;1.63;;;1.53;;
38023;SDS011;23834;48.080;11.682;2023-07-02T01:32:17;1.63;;;1.53;;
38023;SDS011;23834;48.080;11.682;2023-07-02T01:34:43;1.53;;;1.43;;
38023;SDS011;23834;48.080;11.682;2023-07-02T01:37:13;2.30;;;2.10;;
38023;SDS011;23834;48.080;11.682;2023-07-02T01:39:39;1.80;;;1.70;;
38023;SDS011;23834;48.080;11.682;2023-07-02T01:42:11;2.30;;;2.00;;
38023;SDS011;23834;48.080;11.682;2023-07-02T01:44:36;2.63;;;2.00;;
38023;SDS011;23834;48.080;11.682;2023-07-02T01:47:02;1.37;;;1.10;;
38023;SDS011;23834;48.080;11.682;2023-07-02T01:49:27;1.63;;;1.50;;
38023;SDS011;23834;48.080;11.682;2023-07-02T01:51:53;1.60;;;1.50;;
38023;SDS011;23834;48.080;11.682;2023-07-02T01:54:18;1.80;;;1.70;;
38023;SDS011;23834;48.080;11.682;2023-07-02T01:56:43;1.80;;;1.70;;
38023;SDS011;23834;48.080;11.682;2023-07-02T01:59:09;1.80;;;1.70;;
38023;SDS011;23834;48.080;11.682;2023-07-02T02:01:34;1.80;;;1.70;;
38023;SDS011;23834;48.080;11.682;2023-07-02T02:03:59;2.23;;;1.70;;
38023;SDS011;23834;48.080;11.682;2023-07-02T02:06:24;1.67;;;1.57;;
38023;SDS011;23834;48.080;11.682;2023-07-02T02:08:50;1.70;;;1.60;;
38023;SDS011;23834;48.080;11.682;2023-07-02T02:11:15;1.60;;;1.50;;
38023;SDS011;23834;48.080;11.682;2023-07-02T02:13:40;1.40;;;1.30;;
38023;SDS011;23834;48.080;11.682;2023-07-02T02:16:05;1.50;;;1.40;;
38023;SDS011;23834;48.080;11.682;2023-07-02T02:18:30;1.63;;;1.53;;
38023;SDS011;23834;48.080;11.682;2023-07-02T02:20:55;1.60;;;1.50;;
38023;SDS011;23834;48.080;11.682;2023-07-02T02:23:21;1.60;;;1.50;;
38023;SDS011;23834;48.080;11.682;2023-07-02T02:25:46;1.50;;;1.40;;
38023;SDS011;23834;48.080;11.682;2023-07-02T02:28:11;1.70;;;1.60;;
38023;SDS011;23834;48.080;11.682;2023-07-02T02:30:36;2.00;;;1.90;;
38023;SDS011;23834;48.080;11.682;2023-07-02T02:33:01;1.77;;;1.30;;
38023;SDS011;23834;48.080;11.682;2023-07-02T02:35:27;1.90;;;1.80;;
38023;SDS011;23834;48.080;11.682;2023-07-02T02:37:52;1.23;;;1.13;;
38023;SDS011;23834;48.080;11.682;2023-07-02T02:40:17;1.50;;;1.27;;
38023;SDS011;23834;48.080;11.682;2023-07-02T02:42:42;1.67;;;1.57;;
38023;SDS011;23834;48.080;11.682;2023-07-02T02:45:07;1.30;;;1.30;;
38023;SDS011;23834;48.080;11.682;2023-07-02T02:47:33;1.53;;;1.43;;
38023;SDS011;23834;48.080;11.682;2023-07-02T02:49:59;1.73;;;1.33;;
38023;SDS011;23834;48.080;11.682;2023-07-02T02:52:24;1.70;;;1.43;;
38023;SDS011;23834;48.080;11.682;2023-07-02T02:54:50;1.60;;;1.50;;
38023;SDS011;23834;48.080;11.682;2023-07-02T02:57:17;1.57;;;1.47;;
38023;SDS011;23834;48.080;11.682;2023-07-02T02:59:42;1.80;;;1.70;;
38023;SDS011;23834;48.080;11.682;2023-07-02T03:02:08;1.63;;;1.53;;
38023;SDS011;23834;48.080;11.682;2023-07-02T03:04:34;1.70;;;1.60;;
38023;SDS011;23834;48.080;11.682;2023-07-02T03:06:59;1.57;;;1.47;;
38023;SDS011;23834;48.080;11.682;2023-07-02T03:09:24;1.60;;;1.50;;
38023;SDS011;23834;48.080;11.682;2023-07-02T03:11:49;1.70;;;1.60;;
38023;SDS011;23834;48.080;11.682;2023-07-02T03:14:14;1.37;;;1.17;;
38023;SDS011;23834;48.080;11.682;2023-07-02T03:16:40;1.70;;;1.60;;
38023;SDS011;23834;48.080;11.682;2023-07-02T03:19:05;1.40;;;1.30;;
38023;SDS011;23834;48.080;11.682;2023-07-02T03:21:30;1.40;;;1.30;;
38023;SDS011;23834;48.080;11.682;2023-07-02T03:23:57;1.23;;;1.20;;
38023;SDS011;23834;48.080;11.682;2023-07-02T03:26:22;1.53;;;1.43;;
38023;SDS011;23834;48.080;11.682;2023-07-02T03:28:48;1.40;;;1.30;;
38023;SDS011;23834;48.080;11.682;2023-07-02T03:31:14;1.00;;;1.00;;
38023;SDS011;23834;48.080;11.682;2023-07-02T03:33:39;1.33;;;1.30;;
38023;SDS011;23834;48.080;11.682;2023-07-02T03:36:05;1.50;;;1.40;;
38023;SDS011;23834;48.080;11.682;2023-07-02T03:38:30;1.60;;;1.50;;
38023;SDS011;23834;48.080;11.682;2023-07-02T03:40:55;1.57;;;1.43;;
38023;SDS011;23834;48.080;11.682;2023-07-02T03:43:20;1.03;;;1.03;;
38023;SDS011;23834;48.080;11.682;2023-07-02T03:45:45;1.27;;;1.10;;
38023;SDS011;23834;48.080;11.682;2023-07-02T03:48:11;1.40;;;1.30;;
38023;SDS011;23834;48.080;11.682;2023-07-02T03:50:36;1.10;;;1.10;;
38023;SDS011;23834;48.080;11.682;2023-07-02T03:53:01;1.30;;;1.20;;
38023;SDS011;23834;48.080;11.682;2023-07-02T03:55:26;1.20;;;1.10;;
38023;SDS011;23834;48.080;11.682;2023-07-02T03:57:51;1.03;;;1.03;;
38023;SDS011;23834;48.080;11.682;2023-07-02T04:00:17;1.37;;;1.27;;
38023;SDS011;23834;48.080;11.682;2023-07-02T04:02:42;1.20;;;1.10;;
38023;SDS011;23834;48.080;11.682;2023-07-02T04:05:07;1.23;;;1.13;;
38023;SDS011;23834;48.080;11.682;2023-07-02T04:07:32;1.30;;;1.20;;
38023;SDS011;23834;48.080;11.682;2023-07-02T04:09:58;1.83;;;1.30;;
38023;SDS011;23834;48.080;11.682;2023-07-02T04:12:23;1.30;;;1.20;;
38023;SDS011;23834;48.080;11.682;2023-07-02T04:14:48;1.47;;;1.30;;
38023;SDS011;23834;48.080;11.682;2023-07-02T04:17:13;1.47;;;1.37;;
38023;SDS011;23834;48.080;11.682;2023-07-02T04:19:38;1.27;;;1.17;;
38023;SDS011;23834;48.080;11.682;2023-07-02T04:22:03;1.40;;;1.30;;
38023;SDS011;23834;48.080;11.682;2023-07-02T04:24:29;3.70;;;1.30;;
38023;SDS011;23834;48.080;11.682;2023-07-02T04:26:54;1.87;;;1.37;;
38023;SDS011;23834;48.080;11.682;2023-07-02T04:29:19;1.00;;;1.00;;
38023;SDS011;23834;48.080;11.682;2023-07-02T04:31:45;1.67;;;1.57;;
38023;SDS011;23834;48.080;11.682;2023-07-02T04:34:10;1.27;;;1.17;;
38023;SDS011;23834;48.080;11.682;2023-07-02T04:36:35;1.20;;;1.10;;
38023;SDS011;23834;48.080;11.682;2023-07-02T04:39:00;1.37;;;1.27;;
38023;SDS011;23834;48.080;11.682;2023-07-02T04:41:26;1.37;;;1.27;;
38023;SDS011;23834;48.080;11.682;2023-07-02T04:43:51;1.70;;;1.60;;
38023;SDS011;23834;48.080;11.682;2023-07-02T04:46:16;1.23;;;1.20;;
38023;SDS011;23834;48.080;11.682;2023-07-02T04:48:42;0.93;;;0.90;;
38023;SDS011;23834;48.080;11.682;2023-07-02T04:51:08;1.47;;;1.20;;
38023;SDS011;23834;48.080;11.682;2023-07-02T04:53:33;3.10;;;1.47;;
38023;SDS011;23834;48.080;11.682;2023-07-02T04:55:58;1.00;;;1.00;;
38023;SDS011;23834;48.080;11.682;2023-07-02T04:58:23;1.40;;;1.30;;
38023;SDS011;23834;48.080;11.682;2023-07-02T05:00:48;0.97;;;0.97;;
38023;SDS011;23834;48.080;11.682;2023-07-02T05:03:14;1.50;;;1.40;;
38023;SDS011;23834;48.080;11.682;2023-07-02T05:05:39;1.40;;;1.30;;
38023;SDS011;23834;48.080;11.682;2023-07-02T05:08:04;2.10;;;1.40;;
38023;SDS011;23834;48.080;11.682;2023-07-02T05:10:29;1.53;;;1.43;;
38023;SDS011;23834;48.080;11.682;2023-07-02T05:12:54;1.30;;;1.17;;
38023;SDS011;23834;48.080;11.682;2023-07-02T05:15:20;1.40;;;1.30;;
38023;SDS011;23834;48.080;11.682;2023-07-02T05:17:45;1.50;;;1.40;;
38023;SDS011;23834;48.080;11.682;2023-07-02T05:20:10;1.40;;;1.30;;
38023;SDS011;23834;48.080;11.682;2023-07-02T05:22:35;1.43;;;1.33;;
38023;SDS011;23834;48.080;11.682;2023-07-02T05:25:01;1.47;;;1.27;;
38023;SDS011;23834;48.080;11.682;2023-07-02T05:27:26;1.30;;;1.20;;
38023;SDS011;23834;48.080;11.682;2023-07-02T05:29:51;1.13;;;0.97;;
38023;SDS011;23834;48.080;11.682;2023-07-02T05:32:16;1.03;;;1.03;;
38023;SDS011;23834;48.080;11.682;2023-07-02T05:34:41;1.33;;;1.23;;
38023;SDS011;23834;48.080;11.682;2023-07-02T05:37:07;1.40;;;1.30;;
38023;SDS011;23834;48.080;11.682;2023-07-02T05:39:33;1.40;;;1.30;;
38023;SDS011;23834;48.080;11.682;2023-07-02T05:41:58;1.60;;;1.50;;
38023;SDS011;23834;48.080;11.682;2023-07-02T05:44:23;1.53;;;1.43;;
38023;SDS011;23834;48.080;11.682;2023-07-02T05:46:49;1.43;;;1.33;;
38023;SDS011;23834;48.080;11.682;2023-07-02T05:49:14;1.27;;;1.17;;
38023;SDS011;23834;48.080;11.682;2023-07-02T05:51:39;1.20;;;1.10;;
38023;SDS011;23834;48.080;11.682;2023-07-02T05:54:04;1.37;;;1.27;;
38023;SDS011;23834;48.080;11.682;2023-07-02T05:56:29;1.63;;;1.47;;
38023;SDS011;23834;48.080;11.682;2023-07-02T05:58:54;1.40;;;1.30;;
38023;SDS011;23834;48.080;11.682;2023-07-02T06:01:20;1.10;;;1.00;;
38023;SDS011;23834;48.080;11.682;2023-07-02T06:03:45;1.10;;;1.10;;
38023;SDS011;23834;48.080;11.682;2023-07-02T06:06:10;1.20;;;1.10;;
38023;SDS011;23834;48.080;11.682;2023-07-02T06:08:36;1.00;;;1.00;;
38023;SDS011;23834;48.080;11.682;2023-07-02T06:11:01;1.27;;;1.17;;
38023;SDS011;23834;48.080;11.682;2023-07-02T06:13:26;1.10;;;1.00;;
38023;SDS011;23834;48.080;11.682;2023-07-02T06:15:51;1.37;;;1.27;;
38023;SDS011;23834;48.080;11.682;2023-07-02T06:18:17;1.07;;;1.00;;
38023;SDS011;23834;48.080;11.682;2023-07-02T06:20:42;1.40;;;1.30;;
38023;SDS011;23834;48.080;11.682;2023-07-02T06:23:07;1.50;;;1.40;;
38023;SDS011;23834;48.080;11.682;2023-07-02T06:25:32;1.50;;;1.40;;
38023;SDS011;23834;48.080;11.682;2023-07-02T06:27:58;1.40;;;1.30;;
38023;SDS011;23834;48.080;11.682;2023-07-02T06:30:24;1.40;;;1.30;;
38023;SDS011;23834;48.080;11.682;2023-07-02T06:32:49;1.30;;;1.20;;
38023;SDS011;23834;48.080;11.682;2023-07-02T06:35:15;1.37;;;1.20;;
38023;SDS011;23834;48.080;11.682;2023-07-02T06:37:40;1.23;;;1.13;;
38023;SDS011;23834;48.080;11.682;2023-07-02T06:40:05;1.10;;;1.10;;
38023;SDS011;23834;48.080;11.682;2023-07-02T06:42:31;1.27;;;1.17;;
38023;SDS011;23834;48.080;11.682;2023-07-02T06:44:56;2.17;;;1.53;;
38023;SDS011;23834;48.080;11.682;2023-07-02T06:47:21;1.27;;;1.17;;
38023;SDS011;23834;48.080;11.682;2023-07-02T06:49:46;1.20;;;1.13;;
38023;SDS011;23834;48.080;11.682;2023-07-02T06:52:11;1.43;;;1.33;;
38023;SDS011;23834;48.080;11.682;2023-07-02T06:54:37;1.20;;;1.20;;
38023;SDS011;23834;48.080;11.682;2023-07-02T06:57:02;1.40;;;1.30;;
38023;SDS011;23834;48.080;11.682;2023-07-02T06:59:27;1.40;;;1.30;;
38023;SDS011;23834;48.080;11.682;2023-07-02T07:01:52;1.50;;;1.40;;
38023;SDS011;23834;48.080;11.682;2023-07-02T07:04:17;1.50;;;1.40;;
38023;SDS011;23834;48.080;11.682;2023-07-02T07:06:43;1.43;;;1.33;;
38023;SDS011;23834;48.080;11.682;2023-07-02T07:09:08;1.40;;;1.30;;
38023;SDS011;23834;48.080;11.682;2023-07-02T07:11:33;1.60;;;1.50;;
38023;SDS011;23834;48.080;11.682;2023-07-02T07:13:59;1.10;;;1.10;;
38023;SDS011;23834;48.080;11.682;2023-07-02T07:16:24;1.40;;;1.30;;
38023;SDS011;23834;48.080;11.682;2023-07-02T07:18:49;1.43;;;1.33;;
38023;SDS011;23834;48.080;11.682;2023-07-02T07:21:14;1.10;;;1.10;;
38023;SDS011;23834;48.080;11.682;2023-07-02T07:23:40;1.30;;;1.20;;
38023;SDS011;23834;48.080;11.682;2023-07-02T07:26:05;1.20;;;1.10;;
38023;SDS011;23834;48.080;11.682;2023-07-02T07:28:30;1.13;;;1.13;;
38023;SDS011;23834;48.080;11.682;2023-07-02T07:30:55;1.20;;;1.20;;
38023;SDS011;23834;48.080;11.682;2023-07-02T07:33:20;1.30;;;1.20;;
38023;SDS011;23834;48.080;11.682;2023-07-02T07:35:46;1.30;;;1.20;;
38023;SDS011;23834;48.080;11.682;2023-07-02T07:38:12;1.83;;;1.33;;
38023;SDS011;23834;48.080;11.682;2023-07-02T07:40:37;1.63;;;1.53;;
38023;SDS011;23834;48.080;11.682;2023-07-02T07:43:03;1.40;;;1.30;;
38023;SDS011;23834;48.080;11.682;2023-07-02T07:45:28;1.07;;;1.07;;
38023;SDS011;23834;48.080;11.682;2023-07-02T07:47:53;3.43;;;1.10;;
38023;SDS011;23834;48.080;11.682;2023-07-02T07:50:18;1.87;;;1.70;;
38023;SDS011;23834;48.080;11.682;2023-07-02T07:52:43;1.30;;;1.27;;
38023;SDS011;23834;48.080;11.682;2023-07-02T07:55:09;1.63;;;1.37;;
38023;SDS011;23834;48.080;11.682;2023-07-02T07:57:35;3.23;;;1.63;;
38023;SDS011;23834;48.080;11.682;2023-07-02T08:00:01;1.30;;;1.20;;
38023;SDS011;23834;48.080;11.682;2023-07-02T08:02:26;1.50;;;1.40;;
38023;SDS011;23834;48.080;11.682;2023-07-02T08:04:51;1.30;;;1.20;;
38023;SDS011;23834;48.080;11.682;2023-07-02T08:07:16;1.40;;;1.30;;
38023;SDS011;23834;48.080;11.682;2023-07-02T08:09:41;1.73;;;1.63;;
38023;SDS011;23834;48.080;11.682;2023-07-02T08:12:07;1.73;;;1.63;;
38023;SDS011;23834;48.080;11.682;2023-07-02T08:14:32;1.53;;;1.43;;
38023;SDS011;23834;48.080;11.682;2023-07-02T08:16:57;1.80;;;1.70;;
38023;SDS011;23834;48.080;11.682;2023-07-02T08:19:23;1.67;;;1.57;;
38023;SDS011;23834;48.080;11.682;2023-07-02T08:21:48;1.63;;;1.53;;
38023;SDS011;23834;48.080;11.682;2023-07-02T08:24:13;1.47;;;1.37;;
38023;SDS011;23834;48.080;11.682;2023-07-02T08:26:38;1.67;;;1.50;;
38023;SDS011;23834;48.080;11.682;2023-07-02T08:29:04;1.50;;;1.40;;
38023;SDS011;23834;48.080;11.682;2023-07-02T08:31:29;1.20;;;1.10;;
38023;SDS011;23834;48.080;11.682;2023-07-02T08:33:54;1.53;;;1.43;;
38023;SDS011;23834;48.080;11.682;2023-07-02T08:36:19;1.30;;;1.20;;
38023;SDS011;23834;48.080;11.682;2023-07-02T08:38:45;1.40;;;1.30;;
38023;SDS011;23834;48.080;11.682;2023-07-02T08:41:10;1.90;;;1.67;;
38023;SDS011;23834;48.080;11.682;2023-07-02T08:43:35;1.77;;;1.67;;
38023;SDS011;23834;48.080;11.682;2023-07-02T08:46:01;1.40;;;1.30;;
38023;SDS011;23834;48.080;11.682;2023-07-02T08:48:26;2.53;;;1.67;;
38023;SDS011;23834;48.080;11.682;2023-07-02T08:50:51;1.33;;;1.23;;
38023;SDS011;23834;48.080;11.682;2023-07-02T08:53:16;1.30;;;1.20;;
38023;SDS011;23834;48.080;11.682;2023-07-02T08:55:42;1.57;;;1.47;;
38023;SDS011;23834;48.080;11.682;2023-07-02T08:58:07;1.23;;;1.13;;
38023;SDS011;23834;48.080;11.682;2023-07-02T09:00:32;1.53;;;1.43;;
38023;SDS011;23834;48.080;11.682;2023-07-02T09:03:11;1.50;;;1.40;;
38023;SDS011;23834;48.080;11.682;2023-07-02T09:05:46;1.57;;;1.47;;
38023;SDS011;23834;48.080;11.682;2023-07-02T09:08:11;1.80;;;1.63;;
38023;SDS011;23834;48.080;11.682;2023-07-02T09:10:37;1.60;;;1.50;;
38023;SDS011;23834;48.080;11.682;2023-07-02T09:13:05;1.50;;;1.40;;
38023;SDS011;23834;48.080;11.682;2023-07-02T09:15:37;1.23;;;1.17;;
38023;SDS011;23834;48.080;11.682;2023-07-02T09:18:03;1.53;;;1.43;;
38023;SDS011;23834;48.080;11.682;2023-07-02T09:20:38;1.27;;;1.17;;
38023;SDS011;23834;48.080;11.682;2023-07-02T09:23:03;1.47;;;1.33;;
38023;SDS011;23834;48.080;11.682;2023-07-02T09:25:38;1.53;;;1.43;;
38023;SDS011;23834;48.080;11.682;2023-07-02T09:28:14;1.43;;;1.33;;
38023;SDS011;23834;48.080;11.682;2023-07-02T09:30:48;1.60;;;1.50;;
38023;SDS011;23834;48.080;11.682;2023-07-02T09:33:15;2.07;;;1.97;;
38023;SDS011;23834;48.080;11.682;2023-07-02T09:35:40;1.50;;;1.40;;
38023;SDS011;23834;48.080;11.682;2023-07-02T09:38:05;1.30;;;1.20;;
38023;SDS011;23834;48.080;11.682;2023-07-02T09:40:31;1.27;;;1.17;;
38023;SDS011;23834;48.080;11.682;2023-07-02T09:42:56;1.53;;;1.43;;
38023;SDS011;23834;48.080;11.682;2023-07-02T09:45:22;1.43;;;1.33;;
38023;SDS011;23834;48.080;11.682;2023-07-02T09:47:47;1.90;;;1.63;;
38023;SDS011;23834;48.080;11.682;2023-07-02T09:50:14;1.30;;;1.20;;
38023;SDS011;23834;48.080;11.682;2023-07-02T09:52:40;1.33;;;1.23;;
38023;SDS011;23834;48.080;11.682;2023-07-02T09:55:06;1.30;;;1.20;;
38023;SDS011;23834;48.080;11.682;2023-07-02T09:57:31;1.57;;;1.47;;
38023;SDS011;23834;48.080;11.682;2023-07-02T09:59:59;1.40;;;1.30;;
38023;SDS011;23834;48.080;11.682;2023-07-02T10:02:24;1.47;;;1.37;;
38023;SDS011;23834;48.080;11.682;2023-07-02T10:04:49;1.00;;;0.90;;
38023;SDS011;23834;48.080;11.682;2023-07-02T10:07:29;1.20;;;1.10;;
38023;SDS011;23834;48.080;11.682;2023-07-02T10:09:55;1.27;;;1.17;;
38023;SDS011;23834;48.080;11.682;2023-07-02T10:12:21;1.30;;;1.20;;
38023;SDS011;23834;48.080;11.682;2023-07-02T10:14:47;1.20;;;1.10;;
38023;SDS011;23834;48.080;11.682;2023-07-02T10:17:32;1.20;;;1.10;;
38023;SDS011;23834;48.080;11.682;2023-07-02T10:20:01;1.20;;;1.10;;
38023;SDS011;23834;48.080;11.682;2023-07-02T10:22:53;1.30;;;1.20;;
38023;SDS011;23834;48.080;11.682;2023-07-02T10:25:24;1.60;;;1.47;;
38023;SDS011;23834;48.080;11.682;2023-07-02T10:27:50;1.53;;;1.33;;
38023;SDS011;23834;48.080;11.682;2023-07-02T10:30:15;1.47;;;1.10;;
38023;SDS011;23834;48.080;11.682;2023-07-02T10:32:40;1.10;;;1.10;;
38023;SDS011;23834;48.080;11.682;2023-07-02T10:37:40;1.20;;;1.20;;
38023;SDS011;23834;48.080;11.682;2023-07-02T10:40:06;1.77;;;1.67;;
38023;SDS011;23834;48.080;11.682;2023-07-02T10:42:31;1.33;;;1.23;;
38023;SDS011;23834;48.080;11.682;2023-07-02T10:44:58;1.30;;;1.20;;
38023;SDS011;23834;48.080;11.682;2023-07-02T10:47:23;1.47;;;1.37;;
38023;SDS011;23834;48.080;11.682;2023-07-02T10:49:49;1.43;;;1.33;;
38023;SDS011;23834;48.080;11.682;2023-07-02T10:52:14;1.60;;;1.50;;
38023;SDS011;23834;48.080;11.682;2023-07-02T10:54:40;1.47;;;1.37;;
38023;SDS011;23834;48.080;11.682;2023-07-02T10:57:06;1.40;;;1.27;;
38023;SDS011;23834;48.080;11.682;2023-07-02T10:59:31;2.03;;;1.53;;
38023;SDS011;23834;48.080;11.682;2023-07-02T11:01:57;1.53;;;1.43;;
38023;SDS011;23834;48.080;11.682;2023-07-02T11:04:26;1.47;;;1.37;;
38023;SDS011;23834;48.080;11.682;2023-07-02T11:06:52;1.60;;;1.50;;
38023;SDS011;23834;48.080;11.682;2023-07-02T11:09:17;1.67;;;1.57;;
38023;SDS011;23834;48.080;11.682;2023-07-02T11:11:55;1.40;;;1.30;;
38023;SDS011;23834;48.080;11.682;2023-07-02T11:14:30;1.80;;;1.70;;
38023;SDS011;23834;48.080;11.682;2023-07-02T11:16:56;1.67;;;1.57;;
38023;SDS011;23834;48.080;11.682;2023-07-02T11:19:22;1.80;;;1.70;;
38023;SDS011;23834;48.080;11.682;2023-07-02T11:21:51;1.80;;;1.40;;
38023;SDS011;23834;48.080;11.682;2023-07-02T11:24:25;1.87;;;1.77;;
38023;SDS011;23834;48.080;11.682;2023-07-02T11:26:50;1.60;;;1.50;;
38023;SDS011;23834;48.080;11.682;2023-07-02T11:29:17;1.47;;;1.37;;
38023;SDS011;23834;48.080;11.682;2023-07-02T11:31:43;2.03;;;1.93;;
38023;SDS011;23834;48.080;11.682;2023-07-02T11:34:15;1.37;;;1.27;;
38023;SDS011;23834;48.080;11.682;2023-07-02T11:36:40;1.40;;;1.30;;
38023;SDS011;23834;48.080;11.682;2023-07-02T11:39:06;1.47;;;1.37;;
38023;SDS011;23834;48.080;11.682;2023-07-02T11:41:37;1.57;;;1.47;;
38023;SDS011;23834;48.080;11.682;2023-07-02T11:44:03;1.43;;;1.33;;
38023;SDS011;23834;48.080;11.682;2023-07-02T11:46:28;1.63;;;1.50;;
38023;SDS011;23834;48.080;11.682;2023-07-02T11:48:53;2.43;;;1.27;;
38023;SDS011;23834;48.080;11.682;2023-07-02T11:51:18;1.50;;;1.40;;
38023;SDS011;23834;48.080;11.682;2023-07-02T11:53:43;1.70;;;1.60;;
38023;SDS011;23834;48.080;11.682;2023-07-02T11:56:09;1.80;;;1.70;;
38023;SDS011;23834;48.080;11.682;2023-07-02T11:58:34;1.53;;;1.43;;
38023;SDS011;23834;48.080;11.682;2023-07-02T12:00:59;1.60;;;1.50;;
38023;SDS011;23834;48.080;11.682;2023-07-02T12:03:25;1.80;;;1.63;;
38023;SDS011;23834;48.080;11.682;2023-07-02T12:05:50;2.60;;;1.70;;
38023;SDS011;23834;48.080;11.682;2023-07-02T12:08:16;1.90;;;1.80;;
38023;SDS011;23834;48.080;11.682;2023-07-02T12:10:41;1.80;;;1.60;;
38023;SDS011;23834;48.080;11.682;2023-07-02T12:13:06;1.60;;;1.47;;
38023;SDS011;23834;48.080;11.682;2023-07-02T12:15:31;1.77;;;1.67;;
38023;SDS011;23834;48.080;11.682;2023-07-02T12:17:57;1.80;;;1.70;;
38023;SDS011;23834;48.080;11.682;2023-07-02T12:20:22;1.57;;;1.47;;
38023;SDS011;23834;48.080;11.682;2023-07-02T12:22:47;2.00;;;1.80;;
38023;SDS011;23834;48.080;11.682;2023-07-02T12:25:12;2.00;;;1.90;;
38023;SDS011;23834;48.080;11.682;2023-07-02T12:27:37;1.77;;;1.50;;
38023;SDS011;23834;48.080;11.682;2023-07-02T12:30:03;2.23;;;2.03;;
38023;SDS011;23834;48.080;11.682;2023-07-02T12:32:29;2.03;;;1.77;;
38023;SDS011;23834;48.080;11.682;2023-07-02T12:34:55;1.90;;;1.70;;
38023;SDS011;23834;48.080;11.682;2023-07-02T12:37:20;1.73;;;1.60;;
38023;SDS011;23834;48.080;11.682;2023-07-02T12:39:45;2.60;;;2.40;;
38023;SDS011;23834;48.080;11.682;2023-07-02T12:42:11;2.20;;;2.00;;
38023;SDS011;23834;48.080;11.682;2023-07-02T12:44:36;2.20;;;2.00;;
38023;SDS011;23834;48.080;11.682;2023-07-02T12:47:01;2.57;;;2.37;;
38023;SDS011;23834;48.080;11.682;2023-07-02T12:49:26;2.27;;;1.83;;
38023;SDS011;23834;48.080;11.682;2023-07-02T12:51:51;1.90;;;1.80;;
38023;SDS011;23834;48.080;11.682;2023-07-02T12:54:17;2.33;;;1.97;;
38023;SDS011;23834;48.080;11.682;2023-07-02T12:56:42;2.97;;;2.67;;
38023;SDS011;23834;48.080;11.682;2023-07-02T12:59:07;2.43;;;2.23;;
38023;SDS011;23834;48.080;11.682;2023-07-02T13:01:32;2.00;;;1.83;;
38023;SDS011;23834;48.080;11.682;2023-07-02T13:03:58;2.17;;;1.97;;
38023;SDS011;23834;48.080;11.682;2023-07-02T13:06:24;2.63;;;2.23;;
38023;SDS011;23834;48.080;11.682;2023-07-02T13:08:49;2.67;;;2.30;;
38023;SDS011;23834;48.080;11.682;2023-07-02T13:11:14;2.40;;;2.20;;
38023;SDS011;23834;48.080;11.682;2023-07-02T13:13:40;2.67;;;2.40;;
38023;SDS011;23834;48.080;11.682;2023-07-02T13:16:05;2.50;;;2.23;;
38023;SDS011;23834;48.080;11.682;2023-07-02T13:18:31;2.80;;;2.50;;
38023;SDS011;23834;48.080;11.682;2023-07-02T13:20:56;2.67;;;2.30;;
38023;SDS011;23834;48.080;11.682;2023-07-02T13:23:21;3.83;;;2.73;;
38023;SDS011;23834;48.080;11.682;2023-07-02T13:25:46;2.57;;;2.37;;
38023;SDS011;23834;48.080;11.682;2023-07-02T13:28:12;2.90;;;2.50;;
38023;SDS011;23834;48.080;11.682;2023-07-02T13:30:37;2.73;;;2.53;;
38023;SDS011;23834;48.080;11.682;2023-07-02T13:33:02;2.90;;;2.40;;
38023;SDS011;23834;48.080;11.682;2023-07-02T13:35:27;2.60;;;2.40;;
38023;SDS011;23834;48.080;11.682;2023-07-02T13:37:53;2.60;;;2.20;;
38023;SDS011;23834;48.080;11.682;2023-07-02T13:40:18;2.60;;;2.40;;
38023;SDS011;23834;48.080;11.682;2023-07-02T13:42:43;2.60;;;2.40;;
38023;SDS011;23834;48.080;11.682;2023-07-02T13:45:08;3.23;;;2.47;;
38023;SDS011;23834;48.080;11.682;2023-07-02T13:47:34;2.93;;;2.63;;
38023;SDS011;23834;48.080;11.682;2023-07-02T13:50:00;2.97;;;2.57;;
38023;SDS011;23834;48.080;11.682;2023-07-02T13:52:25;3.17;;;2.87;;
38023;SDS011;23834;48.080;11.682;2023-07-02T13:54:50;3.30;;;2.60;;
38023;SDS011;23834;48.080;11.682;2023-07-02T13:57:15;3.40;;;2.50;;
38023;SDS011;23834;48.080;11.682;2023-07-02T13:59:40;5.80;;;2.60;;
38023;SDS011;23834;48.080;11.682;2023-07-02T14:02:06;2.70;;;2.50;;
38023;SDS011;23834;48.080;11.682;2023-07-02T14:04:31;2.93;;;2.63;;
38023;SDS011;23834;48.080;11.682;2023-07-02T14:06:57;2.70;;;2.50;;
38023;SDS011;23834;48.080;11.682;2023-07-02T14:09:22;2.87;;;2.57;;
38023;SDS011;23834;48.080;11.682;2023-07-02T14:11:47;3.33;;;3.10;;
38023;SDS011;23834;48.080;11.682;2023-07-02T14:14:12;3.80;;;3.00;;
38023;SDS011;23834;48.080;11.682;2023-07-02T14:16:37;3.13;;;2.80;;
38023;SDS011;23834;48.080;11.682;2023-07-02T14:19:03;3.43;;;2.67;;
38023;SDS011;23834;48.080;11.682;2023-07-02T14:21:28;3.17;;;2.50;;
38023;SDS011;23834;48.080;11.682;2023-07-02T14:23:53;3.30;;;3.00;;
38023;SDS011;23834;48.080;11.682;2023-07-02T14:26:19;3.13;;;2.83;;
38023;SDS011;23834;48.080;11.682;2023-07-02T14:28:44;2.73;;;2.53;;